Terminal Aerodrome Forecast
Issued by NWS

Home | Current Version | Previous Version | Graphics & Text | Print | Product List | Glossary On
Versions: 1 2 3 4 5 6 7 8 9 10 11 12 13 14
930
FTUS43 KTOP 221737
TAFMHK
TAF
KMHK 221737Z 2218/2318 19013G23KT P6SM FEW100
     FM230000 19009KT P6SM FEW250
     FM230300 16006KT P6SM VCTS BKN040CB
     FM230600 01009KT P6SM VCTS BKN040CB
     FM231100 02006KT P6SM BKN150
     FM231600 02012G20KT P6SM SCT100=

USA.gov is the U.S. government's official web portal to all federal, state and local government web resources and services.